Time;durP1;ratioP1;P1;durP2;ratioP2;P2;SDS_P1;SDS_P2;PMS_P1;PMS_P2;Temp;Humidity;BMP_temperature;BMP_pressure;BME280_temperature;BME280_humidity;BME280_pressure;Samples;Min_cycle;Max_cycle;Signal;HPM_P1;HPM_P2
2023/05/29 00:01:20;;;;;;;2.90;2.00;;;;;;;;;;4964471;28;20034;-67
2023/05/29 00:03:46;;;;;;;3.10;1.90;;;;;;;;;;4965459;28;20341;-71
2023/05/29 00:06:12;;;;;;;2.77;2.10;;;;;;;;;;4965666;28;20111;-69
2023/05/29 00:08:37;;;;;;;3.08;1.70;;;;;;;;;;4965839;28;20387;-74
2023/05/29 00:11:02;;;;;;;2.80;1.83;;;;;;;;;;4964043;28;20043;-73
2023/05/29 00:13:27;;;;;;;3.20;2.15;;;;;;;;;;4959692;28;20142;-70
2023/05/29 00:15:53;;;;;;;4.13;2.40;;;;;;;;;;4959651;28;20390;-72
2023/05/29 00:18:18;;;;;;;3.23;2.20;;;;;;;;;;4952837;28;20422;-75
2023/05/29 00:20:43;;;;;;;3.80;2.00;;;;;;;;;;4952549;28;20287;-75
2023/05/29 00:23:09;;;;;;;3.53;2.00;;;;;;;;;;4952366;28;20043;-69
2023/05/29 00:25:35;;;;;;;3.38;1.95;;;;;;;;;;4955257;28;20297;-71
2023/05/29 00:28:00;;;;;;;3.67;2.27;;;;;;;;;;4958021;28;20043;-70
2023/05/29 00:30:25;;;;;;;2.78;1.73;;;;;;;;;;4961752;28;20497;-71
2023/05/29 00:32:51;;;;;;;2.97;2.10;;;;;;;;;;4967910;28;20035;-72
2023/05/29 00:35:17;;;;;;;2.88;2.00;;;;;;;;;;4967088;28;20035;-69
2023/05/29 00:37:42;;;;;;;2.92;2.05;;;;;;;;;;4958515;28;20411;-69
2023/05/29 00:40:08;;;;;;;3.57;2.10;;;;;;;;;;4951111;28;20066;-69
2023/05/29 00:42:33;;;;;;;3.80;2.28;;;;;;;;;;4956169;28;20029;-73
2023/05/29 00:44:58;;;;;;;2.90;2.00;;;;;;;;;;4958388;28;20034;-74
2023/05/29 00:47:24;;;;;;;4.97;1.98;;;;;;;;;;4949976;28;20051;-73
2023/05/29 00:49:51;;;;;;;2.67;2.17;;;;;;;;;;4955963;28;20733;-71
2023/05/29 00:52:16;;;;;;;3.58;2.00;;;;;;;;;;4944641;28;20445;-75
2023/05/29 00:54:42;;;;;;;3.80;1.90;;;;;;;;;;4949915;28;20062;-74
2023/05/29 00:57:07;;;;;;;3.10;2.13;;;;;;;;;;4949263;28;20045;-66
2023/05/29 00:59:33;;;;;;;2.80;2.10;;;;;;;;;;4956157;28;20134;-73
2023/05/29 01:01:58;;;;;;;3.53;2.05;;;;;;;;;;4947404;28;20815;-72
2023/05/29 01:04:25;;;;;;;2.92;2.20;;;;;;;;;;4948400;28;20101;-69
2023/05/29 01:06:51;;;;;;;3.67;2.33;;;;;;;;;;4950998;28;20047;-67
2023/05/29 01:09:16;;;;;;;3.55;2.17;;;;;;;;;;4935557;28;20031;-75
2023/05/29 01:11:57;;;;;;;3.15;2.33;;;;;;;;;;4947894;28;20057;-71
2023/05/29 01:14:41;;;;;;;4.32;1.80;;;;;;;;;;4941855;28;20493;-72
2023/05/29 01:17:10;;;;;;;3.72;2.03;;;;;;;;;;4952984;28;20039;-66
2023/05/29 01:19:46;;;;;;;4.00;2.25;;;;;;;;;;4938024;28;20034;-74
2023/05/29 01:22:14;;;;;;;3.28;1.80;;;;;;;;;;4949258;28;20127;-64
2023/05/29 01:24:54;;;;;;;4.18;2.20;;;;;;;;;;4955818;28;20051;-72
2023/05/29 01:27:20;;;;;;;3.00;1.88;;;;;;;;;;4950913;28;20237;-74
2023/05/29 01:29:45;;;;;;;4.10;2.03;;;;;;;;;;4953081;28;20050;-70
2023/05/29 01:32:11;;;;;;;3.20;1.98;;;;;;;;;;4944603;28;20035;-66
2023/05/29 01:34:36;;;;;;;4.25;2.03;;;;;;;;;;4935833;28;20446;-74
2023/05/29 01:37:01;;;;;;;3.27;2.10;;;;;;;;;;4928391;28;20035;-74
2023/05/29 01:39:26;;;;;;;3.10;2.15;;;;;;;;;;4936244;28;20275;-67
2023/05/29 01:41:52;;;;;;;3.33;2.13;;;;;;;;;;4954352;28;20066;-73
2023/05/29 01:44:17;;;;;;;3.17;2.00;;;;;;;;;;4960369;28;20079;-68
2023/05/29 01:46:42;;;;;;;3.90;1.95;;;;;;;;;;4951677;28;20055;-73
2023/05/29 01:49:08;;;;;;;4.93;1.95;;;;;;;;;;4953965;28;20118;-70
2023/05/29 01:51:33;;;;;;;4.25;2.22;;;;;;;;;;4947852;28;20349;-64
2023/05/29 01:54:01;;;;;;;3.22;2.00;;;;;;;;;;4948110;28;20028;-70
2023/05/29 01:56:27;;;;;;;2.72;2.10;;;;;;;;;;4957429;28;20093;-68
2023/05/29 01:58:55;;;;;;;4.22;2.28;;;;;;;;;;4950332;28;20028;-69
2023/05/29 02:01:23;;;;;;;4.28;2.17;;;;;;;;;;4957747;28;20536;-73
2023/05/29 02:03:49;;;;;;;4.00;1.85;;;;;;;;;;4950135;28;20042;-69
2023/05/29 02:06:14;;;;;;;3.50;2.33;;;;;;;;;;4958652;28;20039;-73
2023/05/29 02:08:40;;;;;;;3.40;1.92;;;;;;;;;;4951332;28;20302;-67
2023/05/29 02:11:05;;;;;;;2.80;2.03;;;;;;;;;;4950782;28;20428;-69
2023/05/29 02:13:31;;;;;;;3.17;2.10;;;;;;;;;;4950199;28;20039;-73
2023/05/29 02:15:56;;;;;;;2.75;1.95;;;;;;;;;;4967809;28;20073;-72
2023/05/29 02:18:21;;;;;;;3.33;2.20;;;;;;;;;;4967605;28;20505;-75
2023/05/29 02:20:47;;;;;;;3.67;2.23;;;;;;;;;;4967543;28;20528;-69
2023/05/29 02:23:12;;;;;;;3.27;2.07;;;;;;;;;;4965244;28;20282;-70
2023/05/29 02:25:38;;;;;;;3.10;1.98;;;;;;;;;;4966631;28;20109;-72
2023/05/29 02:28:03;;;;;;;2.70;2.10;;;;;;;;;;4967631;28;20039;-68
2023/05/29 02:30:29;;;;;;;2.85;2.08;;;;;;;;;;4967707;28;20693;-65
2023/05/29 02:32:54;;;;;;;2.85;2.03;;;;;;;;;;4950613;28;20041;-71
2023/05/29 02:35:22;;;;;;;6.00;2.58;;;;;;;;;;4967473;28;20465;-74
2023/05/29 02:37:47;;;;;;;2.42;1.83;;;;;;;;;;4967622;28;20523;-73
2023/05/29 02:40:12;;;;;;;2.50;1.70;;;;;;;;;;4965174;28;20043;-70
2023/05/29 02:42:37;;;;;;;5.20;2.10;;;;;;;;;;4953627;28;20460;-67
2023/05/29 02:45:03;;;;;;;2.50;1.80;;;;;;;;;;4967610;28;20497;-73
2023/05/29 02:47:28;;;;;;;4.00;2.13;;;;;;;;;;4968345;28;20432;-75
2023/05/29 02:49:54;;;;;;;2.70;2.10;;;;;;;;;;4949575;28;20367;-71
2023/05/29 02:52:19;;;;;;;3.25;2.15;;;;;;;;;;4966432;28;20046;-70
2023/05/29 02:54:44;;;;;;;2.90;1.87;;;;;;;;;;4964256;28;20047;-73
2023/05/29 02:57:09;;;;;;;3.47;2.10;;;;;;;;;;4966600;28;20815;-74
2023/05/29 02:59:35;;;;;;;2.93;2.00;;;;;;;;;;4967997;28;20030;-66
2023/05/29 03:02:00;;;;;;;2.95;1.90;;;;;;;;;;4969382;28;20046;-63
2023/05/29 03:04:26;;;;;;;2.33;1.80;;;;;;;;;;4968693;28;20039;-72
2023/05/29 03:06:52;;;;;;;3.03;2.30;;;;;;;;;;4966672;28;20047;-72
2023/05/29 03:09:18;;;;;;;3.55;1.83;;;;;;;;;;4948546;28;20062;-73
2023/05/29 03:11:44;;;;;;;3.00;2.05;;;;;;;;;;4955996;28;20066;-70
2023/05/29 03:14:09;;;;;;;2.65;1.77;;;;;;;;;;4966619;28;20065;-73
2023/05/29 03:16:35;;;;;;;2.73;1.90;;;;;;;;;;4966482;28;21830;-69
2023/05/29 03:19:01;;;;;;;3.13;1.92;;;;;;;;;;4966180;28;20043;-72
2023/05/29 03:21:26;;;;;;;3.00;2.13;;;;;;;;;;4945780;28;20533;-72
2023/05/29 03:23:51;;;;;;;3.97;2.10;;;;;;;;;;4965272;28;20365;-75
2023/05/29 03:26:17;;;;;;;3.23;2.10;;;;;;;;;;4957465;28;20046;-67
2023/05/29 03:28:42;;;;;;;3.43;1.80;;;;;;;;;;4965740;28;20054;-70
2023/05/29 03:31:08;;;;;;;3.80;1.87;;;;;;;;;;4966925;28;20682;-71
2023/05/29 03:33:33;;;;;;;2.60;2.00;;;;;;;;;;4963780;28;20505;-70
2023/05/29 03:35:58;;;;;;;3.20;1.90;;;;;;;;;;4965803;28;20077;-74
2023/05/29 03:38:24;;;;;;;3.73;2.07;;;;;;;;;;4967356;28;20122;-69
2023/05/29 03:40:49;;;;;;;2.90;1.80;;;;;;;;;;4954544;28;20035;-67
2023/05/29 03:43:14;;;;;;;2.83;1.90;;;;;;;;;;4965936;28;20299;-73
2023/05/29 03:45:40;;;;;;;2.80;1.90;;;;;;;;;;4969295;28;20214;-74
2023/05/29 03:48:05;;;;;;;3.30;2.00;;;;;;;;;;4966056;28;20349;-70
2023/05/29 03:50:30;;;;;;;3.30;1.98;;;;;;;;;;4966796;28;20043;-67
2023/05/29 03:52:55;;;;;;;3.53;2.10;;;;;;;;;;4948962;28;20030;-71
2023/05/29 03:55:21;;;;;;;2.53;1.90;;;;;;;;;;4955728;28;20050;-74
2023/05/29 03:57:46;;;;;;;2.38;2.05;;;;;;;;;;4968800;28;20364;-74
2023/05/29 04:00:12;;;;;;;2.10;1.70;;;;;;;;;;4969786;28;20042;-79
2023/05/29 04:02:40;;;;;;;3.00;2.20;;;;;;;;;;4965260;28;20039;-63
2023/05/29 04:05:06;;;;;;;3.80;1.90;;;;;;;;;;4966686;28;20053;-63
2023/05/29 04:07:31;;;;;;;2.70;2.08;;;;;;;;;;4968390;28;20055;-75
2023/05/29 04:09:57;;;;;;;3.13;2.03;;;;;;;;;;4958873;28;20470;-67
2023/05/29 04:12:22;;;;;;;6.63;2.37;;;;;;;;;;4963227;28;20038;-69
2023/05/29 04:14:47;;;;;;;5.63;2.10;;;;;;;;;;4958299;28;20282;-76
2023/05/29 04:17:12;;;;;;;6.40;2.40;;;;;;;;;;4970758;28;20692;-77
2023/05/29 04:19:37;;;;;;;4.80;2.60;;;;;;;;;;4966632;28;20515;-79
2023/05/29 04:22:03;;;;;;;8.50;2.70;;;;;;;;;;4966827;28;20520;-69
2023/05/29 04:24:28;;;;;;;4.50;2.30;;;;;;;;;;4967820;28;20126;-68
2023/05/29 04:26:53;;;;;;;6.77;2.37;;;;;;;;;;4976216;28;20194;-67
2023/05/29 04:29:19;;;;;;;8.40;2.60;;;;;;;;;;4966005;28;20062;-71
2023/05/29 04:31:44;;;;;;;7.18;2.95;;;;;;;;;;4965697;28;20073;-70
2023/05/29 04:34:10;;;;;;;8.30;2.75;;;;;;;;;;4966769;28;20082;-67
2023/05/29 04:36:37;;;;;;;8.25;2.88;;;;;;;;;;4969851;28;20097;-65
2023/05/29 04:39:02;;;;;;;6.53;2.30;;;;;;;;;;4970003;28;20042;-71
2023/05/29 04:41:30;;;;;;;7.00;2.40;;;;;;;;;;4977801;28;20410;-69
2023/05/29 04:43:56;;;;;;;8.43;2.75;;;;;;;;;;4974291;28;20274;-63
2023/05/29 04:46:22;;;;;;;9.75;2.70;;;;;;;;;;4965676;28;20070;-67
2023/05/29 04:48:47;;;;;;;8.50;2.60;;;;;;;;;;4965788;28;20053;-75
2023/05/29 04:51:12;;;;;;;9.03;2.70;;;;;;;;;;4966593;28;20042;-72
2023/05/29 04:53:39;;;;;;;11.13;3.13;;;;;;;;;;4972687;28;20294;-73
2023/05/29 04:56:05;;;;;;;9.77;2.70;;;;;;;;;;4947213;28;20043;-65
2023/05/29 04:58:30;;;;;;;8.70;2.53;;;;;;;;;;4961720;28;20511;-66
2023/05/29 05:00:57;;;;;;;9.30;2.47;;;;;;;;;;4967907;28;20292;-69
2023/05/29 05:03:24;;;;;;;5.43;2.85;;;;;;;;;;4963275;28;21468;-69
2023/05/29 05:05:49;;;;;;;5.82;2.28;;;;;;;;;;4969923;28;20044;-69
2023/05/29 05:08:14;;;;;;;7.43;2.90;;;;;;;;;;4969822;28;20050;-75
2023/05/29 05:10:40;;;;;;;6.50;2.80;;;;;;;;;;4960808;28;20104;-68
2023/05/29 05:13:07;;;;;;;9.07;2.80;;;;;;;;;;4964734;28;20409;-69
2023/05/29 05:15:32;;;;;;;9.82;3.40;;;;;;;;;;4947705;28;20278;-69
2023/05/29 05:17:57;;;;;;;5.80;2.65;;;;;;;;;;4962848;28;20123;-72
2023/05/29 05:20:22;;;;;;;7.93;2.50;;;;;;;;;;4964688;28;20043;-70
2023/05/29 05:22:48;;;;;;;7.33;2.93;;;;;;;;;;4964553;28;20333;-67
2023/05/29 05:25:13;;;;;;;7.53;2.90;;;;;;;;;;4955320;28;20348;-67
2023/05/29 05:27:39;;;;;;;8.75;2.85;;;;;;;;;;4964740;28;20046;-68
2023/05/29 05:30:05;;;;;;;9.20;2.88;;;;;;;;;;4967278;28;20531;-71
2023/05/29 05:32:30;;;;;;;7.63;3.40;;;;;;;;;;4975629;28;20521;-65
2023/05/29 05:34:55;;;;;;;6.13;3.30;;;;;;;;;;4969145;28;20105;-63
2023/05/29 05:37:23;;;;;;;8.30;2.87;;;;;;;;;;4973522;28;20368;-65
2023/05/29 05:39:48;;;;;;;8.13;2.80;;;;;;;;;;4967469;28;20354;-67
2023/05/29 05:42:13;;;;;;;7.05;2.72;;;;;;;;;;4972011;28;20105;-69
2023/05/29 05:44:38;;;;;;;7.30;2.80;;;;;;;;;;4962098;28;20023;-68
2023/05/29 05:47:04;;;;;;;10.88;3.13;;;;;;;;;;4948019;28;20146;-67
2023/05/29 05:49:29;;;;;;;5.38;2.70;;;;;;;;;;4965852;28;20150;-69
2023/05/29 05:51:54;;;;;;;6.80;2.97;;;;;;;;;;4966389;28;20047;-72
2023/05/29 05:54:20;;;;;;;7.07;3.60;;;;;;;;;;4966679;28;20289;-69
2023/05/29 05:56:45;;;;;;;7.68;2.83;;;;;;;;;;4966809;28;20038;-66
2023/05/29 05:59:10;;;;;;;6.07;3.40;;;;;;;;;;4957057;28;20466;-67
2023/05/29 06:01:36;;;;;;;6.60;2.60;;;;;;;;;;4965778;28;20289;-69
2023/05/29 06:04:01;;;;;;;10.00;3.17;;;;;;;;;;4968442;28;20367;-70
2023/05/29 06:06:26;;;;;;;6.23;2.80;;;;;;;;;;4967977;28;20109;-71
2023/05/29 06:08:52;;;;;;;6.68;2.80;;;;;;;;;;4967681;28;20282;-75
2023/05/29 06:11:17;;;;;;;7.32;3.00;;;;;;;;;;4965195;28;20503;-67
2023/05/29 06:13:42;;;;;;;4.53;2.70;;;;;;;;;;4955740;28;20526;-68
2023/05/29 06:16:07;;;;;;;8.03;2.93;;;;;;;;;;4951008;28;20042;-72
2023/05/29 06:18:33;;;;;;;5.57;2.63;;;;;;;;;;4955576;28;20035;-74
2023/05/29 06:20:58;;;;;;;5.77;2.77;;;;;;;;;;4951278;28;20122;-76
2023/05/29 06:23:23;;;;;;;9.17;2.90;;;;;;;;;;4952400;28;20412;-74
2023/05/29 06:25:49;;;;;;;6.00;2.83;;;;;;;;;;4951501;28;20035;-74
2023/05/29 06:28:14;;;;;;;6.28;2.83;;;;;;;;;;4952575;28;20321;-68
2023/05/29 06:30:40;;;;;;;8.37;3.27;;;;;;;;;;4952120;28;20810;-70
2023/05/29 06:33:05;;;;;;;7.05;3.03;;;;;;;;;;4952003;28;20540;-69
2023/05/29 06:35:30;;;;;;;5.35;2.60;;;;;;;;;;4953090;28;20429;-67
2023/05/29 06:37:55;;;;;;;4.05;2.30;;;;;;;;;;4952403;28;20491;-71
2023/05/29 06:40:21;;;;;;;5.50;2.67;;;;;;;;;;4953225;28;20117;-70
2023/05/29 06:42:46;;;;;;;5.75;2.60;;;;;;;;;;4952101;28;20062;-66
2023/05/29 06:45:14;;;;;;;6.73;2.57;;;;;;;;;;4952024;28;20059;-68
2023/05/29 06:47:40;;;;;;;5.90;2.40;;;;;;;;;;4954944;28;20655;-68
2023/05/29 06:50:06;;;;;;;6.03;2.60;;;;;;;;;;4954814;28;20089;-71
2023/05/29 06:52:31;;;;;;;5.65;2.35;;;;;;;;;;4953022;28;20081;-71
2023/05/29 06:54:56;;;;;;;7.40;2.73;;;;;;;;;;4952257;28;20486;-68
2023/05/29 06:57:22;;;;;;;4.30;2.35;;;;;;;;;;4951947;28;20478;-74
2023/05/29 06:59:47;;;;;;;5.88;2.30;;;;;;;;;;4952224;28;20034;-67
2023/05/29 07:02:12;;;;;;;4.83;2.53;;;;;;;;;;4956427;28;20051;-69
2023/05/29 07:04:37;;;;;;;5.43;2.40;;;;;;;;;;4954160;28;20074;-67
2023/05/29 07:07:02;;;;;;;4.40;2.03;;;;;;;;;;4953273;28;20125;-69
2023/05/29 07:09:28;;;;;;;4.63;2.50;;;;;;;;;;4941788;28;20295;-66
2023/05/29 07:11:53;;;;;;;4.60;2.30;;;;;;;;;;4952934;28;20282;-66
2023/05/29 07:14:18;;;;;;;4.03;2.07;;;;;;;;;;4952058;28;20130;-67
2023/05/29 07:16:43;;;;;;;5.10;2.43;;;;;;;;;;4953484;28;20133;-70
2023/05/29 07:19:11;;;;;;;4.60;2.30;;;;;;;;;;4953655;28;20336;-69
2023/05/29 07:21:36;;;;;;;5.88;2.33;;;;;;;;;;4952391;28;20294;-71
2023/05/29 07:24:01;;;;;;;5.20;2.17;;;;;;;;;;4952443;28;20121;-66
2023/05/29 07:26:26;;;;;;;5.17;2.10;;;;;;;;;;4953358;28;20443;-70
2023/05/29 07:28:52;;;;;;;5.35;2.40;;;;;;;;;;4953728;28;20051;-66
2023/05/29 07:31:17;;;;;;;6.70;2.30;;;;;;;;;;4952580;28;20118;-68
2023/05/29 07:33:42;;;;;;;4.10;2.30;;;;;;;;;;4955733;28;20509;-72
2023/05/29 07:36:07;;;;;;;4.13;1.90;;;;;;;;;;4961229;28;20123;-72
2023/05/29 07:38:33;;;;;;;5.47;2.17;;;;;;;;;;4958059;28;20032;-75
2023/05/29 07:40:58;;;;;;;3.47;2.40;;;;;;;;;;4965511;28;20030;-69
2023/05/29 07:43:23;;;;;;;4.70;2.47;;;;;;;;;;4967364;28;20046;-73
2023/05/29 07:45:49;;;;;;;3.43;1.80;;;;;;;;;;4972823;28;20059;-78
2023/05/29 07:48:14;;;;;;;4.10;2.38;;;;;;;;;;4967968;28;20309;-82
2023/05/29 07:50:39;;;;;;;4.57;2.30;;;;;;;;;;4965444;28;20145;-73
2023/05/29 07:53:04;;;;;;;4.25;1.95;;;;;;;;;;4943243;28;20284;-77
2023/05/29 07:55:30;;;;;;;5.32;2.10;;;;;;;;;;4966244;28;20042;-65
2023/05/29 07:57:55;;;;;;;4.60;2.10;;;;;;;;;;4967572;28;20418;-69
2023/05/29 08:00:20;;;;;;;4.13;2.00;;;;;;;;;;4965718;28;20274;-66
2023/05/29 08:02:46;;;;;;;5.70;2.10;;;;;;;;;;4963798;28;20381;-68
2023/05/29 08:05:12;;;;;;;4.50;1.80;;;;;;;;;;4964312;28;20122;-65
2023/05/29 08:07:37;;;;;;;3.40;2.13;;;;;;;;;;4950044;28;20082;-64
2023/05/29 08:10:05;;;;;;;5.28;2.17;;;;;;;;;;4966653;28;20043;-66
2023/05/29 08:12:30;;;;;;;4.68;2.30;;;;;;;;;;4964988;28;20023;-67
2023/05/29 08:14:55;;;;;;;4.68;1.90;;;;;;;;;;4955053;28;20125;-70
2023/05/29 08:17:21;;;;;;;4.17;2.20;;;;;;;;;;4963266;28;20022;-74
2023/05/29 08:19:46;;;;;;;3.70;2.10;;;;;;;;;;4963556;28;20270;-72
2023/05/29 08:22:12;;;;;;;2.57;1.80;;;;;;;;;;4963894;28;20271;-67
2023/05/29 08:24:37;;;;;;;2.90;1.83;;;;;;;;;;4947146;28;20077;-69
2023/05/29 08:27:02;;;;;;;3.83;2.07;;;;;;;;;;4940030;28;20527;-71
2023/05/29 08:29:27;;;;;;;3.50;1.92;;;;;;;;;;4953611;28;20471;-67
2023/05/29 08:31:53;;;;;;;3.80;1.97;;;;;;;;;;4933913;28;20343;-69
2023/05/29 08:34:18;;;;;;;4.37;2.20;;;;;;;;;;4960925;28;20769;-65
2023/05/29 08:36:45;;;;;;;3.90;2.10;;;;;;;;;;4964534;28;20018;-74
2023/05/29 08:39:10;;;;;;;2.80;1.90;;;;;;;;;;4965192;28;20085;-71
2023/05/29 08:41:38;;;;;;;3.10;1.83;;;;;;;;;;4965662;28;20245;-71
2023/05/29 08:44:04;;;;;;;3.47;2.20;;;;;;;;;;4963774;28;20978;-69
2023/05/29 08:46:29;;;;;;;2.47;1.73;;;;;;;;;;4964440;28;20050;-67
2023/05/29 08:48:54;;;;;;;3.43;2.10;;;;;;;;;;4964692;28;20038;-67
2023/05/29 08:51:20;;;;;;;4.18;2.30;;;;;;;;;;4963177;28;20027;-68
2023/05/29 08:53:46;;;;;;;3.97;2.20;;;;;;;;;;4969140;28;20086;-71
2023/05/29 08:56:11;;;;;;;5.13;2.20;;;;;;;;;;4966836;28;20342;-71
2023/05/29 08:58:36;;;;;;;3.97;1.77;;;;;;;;;;4947834;28;20033;-71
2023/05/29 09:01:02;;;;;;;4.80;2.03;;;;;;;;;;4964897;28;20267;-67
2023/05/29 09:03:27;;;;;;;3.17;1.93;;;;;;;;;;4947629;28;20012;-70
2023/05/29 09:05:53;;;;;;;4.68;1.98;;;;;;;;;;4956151;28;20369;-66
2023/05/29 09:08:18;;;;;;;4.65;1.98;;;;;;;;;;4953285;28;20035;-75
2023/05/29 09:10:44;;;;;;;2.60;1.70;;;;;;;;;;4952046;28;20034;-70
2023/05/29 09:13:11;;;;;;;3.58;1.98;;;;;;;;;;4955516;28;20030;-65
2023/05/29 09:15:38;;;;;;;5.65;2.45;;;;;;;;;;4949982;28;20477;-67
2023/05/29 09:18:04;;;;;;;4.15;1.90;;;;;;;;;;4948990;28;20039;-70
2023/05/29 09:20:30;;;;;;;3.25;1.95;;;;;;;;;;4948840;28;20136;-68
2023/05/29 09:23:05;;;;;;;4.03;2.20;;;;;;;;;;4933183;28;20046;-70
2023/05/29 09:25:31;;;;;;;7.50;2.22;;;;;;;;;;4951387;28;20057;-70
2023/05/29 09:28:03;;;;;;;6.47;2.10;;;;;;;;;;4950155;28;20050;-72
2023/05/29 09:30:42;;;;;;;3.15;1.98;;;;;;;;;;4949639;28;20049;-69
2023/05/29 09:33:08;;;;;;;3.05;2.10;;;;;;;;;;4950463;28;20402;-74
2023/05/29 09:35:34;;;;;;;3.58;2.33;;;;;;;;;;4949022;28;20043;-67
2023/05/29 09:38:00;;;;;;;4.57;2.10;;;;;;;;;;4951314;28;20047;-67
2023/05/29 09:40:25;;;;;;;3.72;2.33;;;;;;;;;;4950445;28;20086;-65
2023/05/29 09:42:50;;;;;;;3.93;2.47;;;;;;;;;;4949987;28;20081;-65
2023/05/29 09:45:18;;;;;;;4.47;2.53;;;;;;;;;;4949708;28;20054;-70
2023/05/29 09:47:44;;;;;;;3.92;2.50;;;;;;;;;;4949321;28;20046;-71
2023/05/29 09:50:20;;;;;;;4.37;2.53;;;;;;;;;;4950137;28;20039;-76
2023/05/29 09:52:46;;;;;;;4.22;2.20;;;;;;;;;;4949348;28;20061;-66
2023/05/29 09:55:12;;;;;;;6.05;2.53;;;;;;;;;;4954004;28;20039;-60
2023/05/29 09:57:38;;;;;;;4.18;2.15;;;;;;;;;;4956879;28;20428;-68
2023/05/29 10:00:09;;;;;;;3.57;2.20;;;;;;;;;;4962974;28;20027;-71
2023/05/29 10:02:39;;;;;;;3.42;2.20;;;;;;;;;;4962321;28;20791;-72
2023/05/29 10:05:05;;;;;;;3.40;2.25;;;;;;;;;;4963447;28;20083;-71
2023/05/29 10:07:31;;;;;;;5.35;2.40;;;;;;;;;;4964318;28;20050;-70
2023/05/29 10:10:01;;;;;;;3.22;2.10;;;;;;;;;;4961712;28;20031;-77
2023/05/29 10:12:26;;;;;;;4.55;2.25;;;;;;;;;;4950783;28;20484;-76
2023/05/29 10:14:52;;;;;;;3.87;2.20;;;;;;;;;;4964587;28;20054;-76
2023/05/29 10:17:18;;;;;;;5.03;2.27;;;;;;;;;;4964562;28;20505;-77
2023/05/29 10:19:43;;;;;;;3.20;2.22;;;;;;;;;;4964313;28;20031;-73
2023/05/29 10:22:08;;;;;;;3.00;2.27;;;;;;;;;;4966036;28;20085;-70
2023/05/29 10:24:34;;;;;;;3.40;2.20;;;;;;;;;;4961937;28;20039;-75
2023/05/29 10:26:59;;;;;;;3.70;2.30;;;;;;;;;;4950402;28;20121;-74
2023/05/29 10:29:24;;;;;;;3.55;2.17;;;;;;;;;;4961752;28;20090;-72
2023/05/29 10:31:53;;;;;;;3.80;2.13;;;;;;;;;;4970378;28;20034;-70
2023/05/29 10:34:33;;;;;;;3.55;2.00;;;;;;;;;;4962009;28;20322;-71
2023/05/29 10:37:04;;;;;;;2.60;1.90;;;;;;;;;;4963073;28;20031;-63
2023/05/29 10:39:29;;;;;;;4.65;2.20;;;;;;;;;;4965202;28;20047;-67
2023/05/29 10:41:58;;;;;;;2.35;1.90;;;;;;;;;;4965961;28;20497;-66
2023/05/29 10:44:32;;;;;;;2.55;2.00;;;;;;;;;;4966791;28;20027;-68
2023/05/29 10:47:01;;;;;;;4.30;2.13;;;;;;;;;;4966339;28;20142;-63
2023/05/29 10:49:26;;;;;;;3.13;1.90;;;;;;;;;;4964776;28;20564;-72
2023/05/29 10:51:51;;;;;;;4.70;3.30;;;;;;;;;;4966782;28;20042;-66
2023/05/29 10:54:19;;;;;;;3.80;2.38;;;;;;;;;;4967338;28;20035;-69
2023/05/29 10:56:45;;;;;;;4.45;2.55;;;;;;;;;;4967109;28;20062;-67
2023/05/29 10:59:10;;;;;;;4.68;2.22;;;;;;;;;;4965638;28;20564;-66
2023/05/29 11:01:37;;;;;;;3.65;2.50;;;;;;;;;;4966535;28;20041;-64
2023/05/29 11:04:17;;;;;;;3.05;2.10;;;;;;;;;;4965931;28;20084;-70
2023/05/29 11:06:43;;;;;;;4.18;2.50;;;;;;;;;;4966390;28;20451;-69
2023/05/29 11:09:34;;;;;;;4.25;2.70;;;;;;;;;;4965821;28;20027;-68
2023/05/29 11:12:25;;;;;;;4.53;2.17;;;;;;;;;;4955880;28;20061;-69
2023/05/29 11:14:54;;;;;;;5.28;2.33;;;;;;;;;;4966368;28;20047;-68
2023/05/29 11:17:32;;;;;;;5.97;2.67;;;;;;;;;;4966884;28;20042;-69
2023/05/29 11:19:59;;;;;;;3.28;2.40;;;;;;;;;;4966268;28;20136;-67
2023/05/29 11:22:26;;;;;;;3.58;2.53;;;;;;;;;;4947890;28;20109;-64
2023/05/29 11:24:52;;;;;;;3.30;2.10;;;;;;;;;;4948299;28;20126;-66
2023/05/29 11:27:18;;;;;;;4.68;2.40;;;;;;;;;;4948519;28;20616;-74
2023/05/29 11:29:44;;;;;;;4.33;2.57;;;;;;;;;;4965162;28;20130;-74
2023/05/29 11:32:11;;;;;;;3.55;2.60;;;;;;;;;;4965920;28;20039;-70
2023/05/29 11:34:38;;;;;;;3.88;2.20;;;;;;;;;;4965112;28;20520;-73
2023/05/29 11:37:03;;;;;;;4.78;2.72;;;;;;;;;;4966090;28;20053;-70
2023/05/29 11:39:29;;;;;;;3.53;2.50;;;;;;;;;;4966530;28;20466;-73
2023/05/29 11:41:54;;;;;;;4.53;2.83;;;;;;;;;;4964527;28;20137;-73
2023/05/29 11:44:20;;;;;;;3.13;2.00;;;;;;;;;;4965699;28;20746;-71
2023/05/29 11:46:45;;;;;;;4.45;2.22;;;;;;;;;;4966008;28;20997;-70
2023/05/29 11:49:10;;;;;;;4.13;2.27;;;;;;;;;;4966225;28;20045;-67
2023/05/29 11:51:36;;;;;;;5.13;2.00;;;;;;;;;;4954062;28;20050;-76
2023/05/29 11:54:01;;;;;;;3.38;2.00;;;;;;;;;;4965268;28;20033;-70
2023/05/29 11:56:27;;;;;;;2.57;1.80;;;;;;;;;;4965223;28;20041;-72
2023/05/29 11:58:56;;;;;;;3.45;2.22;;;;;;;;;;4965067;28;20345;-78
2023/05/29 12:01:23;;;;;;;4.60;2.15;;;;;;;;;;4964648;28;20042;-70
2023/05/29 12:03:48;;;;;;;3.95;2.53;;;;;;;;;;4965789;28;20070;-65
2023/05/29 12:06:14;;;;;;;4.80;2.40;;;;;;;;;;4964754;28;20046;-71
2023/05/29 12:08:39;;;;;;;4.03;2.80;;;;;;;;;;4965243;28;20866;-67
2023/05/29 12:11:05;;;;;;;4.88;2.50;;;;;;;;;;4946486;28;20089;-65
2023/05/29 12:13:30;;;;;;;3.72;2.42;;;;;;;;;;4964791;28;20043;-71
2023/05/29 12:15:59;;;;;;;4.60;2.30;;;;;;;;;;4928370;29;20046;-71
2023/05/29 12:18:25;;;;;;;6.60;2.80;;;;;;;;;;4953067;28;20037;-69
2023/05/29 12:20:50;;;;;;;4.63;2.60;;;;;;;;;;4964913;28;20031;-70
2023/05/29 12:23:18;;;;;;;4.80;2.30;;;;;;;;;;4964604;28;20163;-67
2023/05/29 12:25:44;;;;;;;5.15;2.38;;;;;;;;;;4963759;28;20275;-76
2023/05/29 12:28:11;;;;;;;3.72;2.38;;;;;;;;;;4965259;28;20105;-74
2023/05/29 12:30:37;;;;;;;4.63;2.58;;;;;;;;;;4951616;28;20509;-67
2023/05/29 12:33:02;;;;;;;4.45;2.08;;;;;;;;;;4950996;28;20085;-76
2023/05/29 12:35:28;;;;;;;5.80;2.28;;;;;;;;;;4965671;28;20031;-70
2023/05/29 12:38:00;;;;;;;4.05;2.55;;;;;;;;;;4965478;28;20421;-71
2023/05/29 12:40:27;;;;;;;6.88;2.42;;;;;;;;;;4964124;28;20141;-70
2023/05/29 12:42:55;;;;;;;8.48;3.15;;;;;;;;;;4964485;28;20533;-73
2023/05/29 12:45:21;;;;;;;6.10;2.60;;;;;;;;;;4964811;28;20513;-73
2023/05/29 12:47:49;;;;;;;5.47;2.70;;;;;;;;;;4964800;28;20052;-78
2023/05/29 12:50:19;;;;;;;6.10;2.83;;;;;;;;;;4965895;28;20413;-69
2023/05/29 12:52:44;;;;;;;7.13;2.75;;;;;;;;;;4966206;28;20039;-79
2023/05/29 12:55:09;;;;;;;6.45;3.10;;;;;;;;;;4969792;28;20089;-72
2023/05/29 12:57:34;;;;;;;4.63;2.90;;;;;;;;;;4964812;28;20043;-64
2023/05/29 13:00:00;;;;;;;6.73;2.83;;;;;;;;;;4964891;28;20404;-68
2023/05/29 13:02:25;;;;;;;6.45;2.40;;;;;;;;;;4963609;28;20122;-66
2023/05/29 13:04:50;;;;;;;6.07;2.70;;;;;;;;;;4972352;28;20083;-67
2023/05/29 13:07:16;;;;;;;5.87;2.50;;;;;;;;;;5172034;23;20324;-63
2023/05/29 13:17:46;;;;;;;3.13;2.22;;;;;;;;;;4975590;28;20050;-67
2023/05/29 13:20:11;;;;;;;3.80;2.30;;;;;;;;;;4984209;28;20042;-71
2023/05/29 13:22:39;;;;;;;3.42;2.33;;;;;;;;;;4987090;28;20022;-68
2023/05/29 13:25:09;;;;;;;4.38;2.25;;;;;;;;;;4988135;28;20042;-68
2023/05/29 13:27:34;;;;;;;4.90;2.30;;;;;;;;;;4983926;28;20137;-72
2023/05/29 13:30:00;;;;;;;3.50;2.35;;;;;;;;;;4992396;28;20375;-69
2023/05/29 13:32:25;;;;;;;4.60;2.30;;;;;;;;;;5001317;28;20129;-67
2023/05/29 13:34:50;;;;;;;3.67;2.60;;;;;;;;;;5003902;28;20339;-70
2023/05/29 13:37:15;;;;;;;4.83;2.37;;;;;;;;;;4995094;28;20539;-67
2023/05/29 13:39:41;;;;;;;3.92;2.80;;;;;;;;;;4981877;28;20324;-68
2023/05/29 13:42:07;;;;;;;5.18;2.67;;;;;;;;;;4994830;28;20037;-69
2023/05/29 13:44:32;;;;;;;4.57;2.63;;;;;;;;;;5001920;28;20493;-71
2023/05/29 13:46:57;;;;;;;3.47;2.07;;;;;;;;;;4993842;28;20430;-72
2023/05/29 13:49:22;;;;;;;4.63;2.60;;;;;;;;;;4987127;28;20060;-70
2023/05/29 13:51:48;;;;;;;5.47;2.80;;;;;;;;;;4988276;28;20281;-82
2023/05/29 13:54:15;;;;;;;4.28;3.30;;;;;;;;;;5000593;28;20284;-75
2023/05/29 13:56:40;;;;;;;4.25;2.72;;;;;;;;;;4983511;28;20058;-66
2023/05/29 13:59:06;;;;;;;4.40;3.00;;;;;;;;;;4995954;28;20093;-73
2023/05/29 14:01:34;;;;;;;5.03;2.70;;;;;;;;;;4992854;28;20038;-77
2023/05/29 14:03:59;;;;;;;4.85;2.80;;;;;;;;;;4991386;28;20467;-72
2023/05/29 14:06:25;;;;;;;4.73;2.57;;;;;;;;;;4998777;28;20034;-69
2023/05/29 14:08:50;;;;;;;4.97;2.50;;;;;;;;;;5008332;28;20061;-74
2023/05/29 14:11:16;;;;;;;4.45;2.70;;;;;;;;;;4987233;28;20100;-63
2023/05/29 14:13:41;;;;;;;4.00;2.53;;;;;;;;;;5003444;28;20147;-71
2023/05/29 14:16:06;;;;;;;2.97;1.93;;;;;;;;;;4989143;28;20054;-75
2023/05/29 14:18:31;;;;;;;4.88;2.25;;;;;;;;;;5000872;28;20034;-75
2023/05/29 14:20:57;;;;;;;2.60;2.10;;;;;;;;;;4998539;28;20038;-74
2023/05/29 14:23:22;;;;;;;3.03;1.73;;;;;;;;;;4987990;28;20034;-72
2023/05/29 14:25:47;;;;;;;2.40;1.57;;;;;;;;;;4995730;28;20137;-75
2023/05/29 14:28:13;;;;;;;3.27;1.90;;;;;;;;;;5002497;28;20285;-68
2023/05/29 14:30:38;;;;;;;3.28;1.60;;;;;;;;;;4994326;28;20288;-72
2023/05/29 14:33:03;;;;;;;2.67;1.67;;;;;;;;;;4987238;28;20089;-74
2023/05/29 14:35:28;;;;;;;3.20;1.70;;;;;;;;;;4985358;28;20042;-68
2023/05/29 14:37:54;;;;;;;3.65;1.67;;;;;;;;;;4990435;28;20216;-74
2023/05/29 14:40:19;;;;;;;2.50;1.30;;;;;;;;;;5019895;28;20042;-65
2023/05/29 14:42:44;;;;;;;2.63;1.37;;;;;;;;;;4980408;28;20025;-73
2023/05/29 14:45:09;;;;;;;3.13;1.40;;;;;;;;;;4991990;28;20296;-73